Time;durP1;ratioP1;P1;durP2;ratioP2;P2;SDS_P1;SDS_P2;PMS_P1;PMS_P2;Temp;Humidity;BMP_temperature;BMP_pressure;BME280_temperature;BME280_humidity;BME280_pressure;Samples;Min_cycle;Max_cycle;Signal;HPM_P1;HPM_P2
2023/08/30 00:01:58;;;;;;;1.15;0.30;;;;;;;15.65;100.00;96666.38;1225497;75;2921674;-67
2023/08/30 00:04:30;;;;;;;0.40;0.30;;;;;;;15.70;100.00;96668.28;1225479;75;2920129;-66
2023/08/30 00:07:03;;;;;;;0.40;0.40;;;;;;;15.70;100.00;96662.78;1224918;75;2926774;-68
2023/08/30 00:09:35;;;;;;;0.20;0.20;;;;;;;15.73;100.00;96661.00;1225465;75;2917378;-68
2023/08/30 00:12:09;;;;;;;0.30;0.30;;;;;;;15.69;100.00;96664.03;1225634;75;2917443;-65
2023/08/30 00:14:42;;;;;;;0.30;0.20;;;;;;;15.52;100.00;96669.91;1225351;75;2926966;-67
2023/08/30 00:17:17;;;;;;;0.50;0.40;;;;;;;15.41;100.00;96670.13;1225023;75;2929373;-69
2023/08/30 00:19:50;;;;;;;0.20;0.20;;;;;;;15.12;100.00;96666.44;1225454;75;2922900;-66
2023/08/30 00:22:24;;;;;;;8.30;0.40;;;;;;;15.09;100.00;96676.53;1224021;75;2927793;-68
2023/08/30 00:24:57;;;;;;;0.40;0.40;;;;;;;15.10;100.00;96680.78;1225935;75;2919750;-69
2023/08/30 00:27:30;;;;;;;0.70;0.30;;;;;;;15.02;100.00;96679.91;1225225;75;2924956;-68
2023/08/30 00:30:02;;;;;;;0.25;0.25;;;;;;;15.13;100.00;96695.50;1225662;75;2920110;-70
2023/08/30 00:32:37;;;;;;;0.30;0.30;;;;;;;15.01;100.00;96689.47;1225276;75;2916926;-67
2023/08/30 00:35:11;;;;;;;0.50;0.30;;;;;;;14.98;100.00;96693.25;1221198;75;3071107;-67
2023/08/30 00:37:44;;;;;;;0.20;0.20;;;;;;;15.12;100.00;96685.75;1224624;75;2926786;-67
2023/08/30 00:40:17;;;;;;;0.70;0.30;;;;;;;15.03;100.00;96697.94;1225624;75;2924122;-69
2023/08/30 00:42:49;;;;;;;0.30;0.30;;;;;;;14.78;100.00;96702.16;1224944;75;2924240;-65
2023/08/30 00:45:22;;;;;;;1.75;0.40;;;;;;;14.90;100.00;96697.94;1224846;75;2923251;-71
2023/08/30 00:47:58;;;;;;;0.95;0.40;;;;;;;14.97;100.00;96707.59;1225184;75;2922755;-67
2023/08/30 00:50:30;;;;;;;0.30;0.30;;;;;;;14.94;100.00;96705.91;1225585;75;2924028;-66
2023/08/30 00:53:05;;;;;;;0.60;0.30;;;;;;;14.84;100.00;96709.06;1225395;75;2920974;-66
2023/08/30 00:55:39;;;;;;;1.55;0.35;;;;;;;14.88;100.00;96711.50;1225303;75;2918915;-68
2023/08/30 00:58:13;;;;;;;2.85;0.40;;;;;;;14.86;100.00;96719.53;1225320;75;2918478;-68
2023/08/30 01:00:47;;;;;;;1.10;0.55;;;;;;;14.79;100.00;96715.41;1225539;75;2925295;-68
2023/08/30 01:03:23;;;;;;;2.25;0.50;;;;;;;14.84;100.00;96719.31;1225498;75;2922181;-66
2023/08/30 01:05:55;;;;;;;0.50;0.30;;;;;;;14.87;100.00;96721.03;1226216;75;2918933;-67
2023/08/30 01:08:28;;;;;;;0.70;0.40;;;;;;;14.76;100.00;96718.47;1226070;75;2921524;-68
2023/08/30 01:11:14;;;;;;;0.40;0.40;;;;;;;14.76;100.00;96727.47;1225325;75;2918408;-68
2023/08/30 01:13:56;;;;;;;1.05;0.40;;;;;;;14.78;100.00;96721.44;1225757;75;2915747;-65
2023/08/30 01:16:29;;;;;;;0.30;0.30;;;;;;;15.00;100.00;96717.53;1225746;75;2915598;-64
2023/08/30 01:19:20;;;;;;;1.05;0.30;;;;;;;14.80;100.00;96719.63;1225644;75;2918577;-67
2023/08/30 01:21:59;;;;;;;1.25;0.50;;;;;;;14.87;100.00;96716.25;1225140;75;2925478;-66
2023/08/30 01:24:41;;;;;;;0.95;0.40;;;;;;;14.85;100.00;96716.03;1225056;75;2916350;-66
2023/08/30 01:27:18;;;;;;;0.80;0.55;;;;;;;14.77;100.00;96717.19;1224841;75;2924764;-67
2023/08/30 01:29:53;;;;;;;0.65;0.40;;;;;;;14.85;100.00;96720.81;1224065;75;2922128;-67
2023/08/30 01:32:28;;;;;;;0.80;0.35;;;;;;;15.03;100.00;96714.50;1224768;75;2930771;-67
2023/08/30 01:35:01;;;;;;;0.20;0.20;;;;;;;15.20;100.00;96727.97;1225300;75;2923975;-68
2023/08/30 01:37:36;;;;;;;0.50;0.30;;;;;;;15.21;100.00;96718.41;1225526;75;2920227;-70
2023/08/30 01:40:12;;;;;;;1.00;0.30;;;;;;;15.11;100.00;96715.34;1225685;75;2923463;-69
2023/08/30 01:42:48;;;;;;;0.55;0.30;;;;;;;15.12;100.00;96711.28;1225229;75;2920621;-66
2023/08/30 01:45:23;;;;;;;0.40;0.25;;;;;;;15.17;100.00;96706.22;1225238;75;2925238;-69
2023/08/30 01:47:58;;;;;;;1.00;0.40;;;;;;;15.01;100.00;96705.25;1225332;75;2917282;-69
2023/08/30 01:50:31;;;;;;;0.65;0.35;;;;;;;14.97;100.00;96710.34;1224851;75;2925460;-68
2023/08/30 01:53:05;;;;;;;0.30;0.30;;;;;;;15.31;100.00;96710.44;1224657;75;2921143;-66
2023/08/30 01:55:39;;;;;;;0.30;0.15;;;;;;;15.20;100.00;96705.91;1224350;75;2921914;-67
2023/08/30 01:58:15;;;;;;;0.30;0.20;;;;;;;15.40;100.00;96706.53;1224740;75;2917965;-68
2023/08/30 02:00:47;;;;;;;0.20;0.20;;;;;;;15.47;100.00;96703.88;1224876;75;2922486;-68
2023/08/30 02:03:20;;;;;;;0.15;0.15;;;;;;;15.56;100.00;96708.19;1224764;75;2919291;-68
2023/08/30 02:06:04;;;;;;;0.10;0.10;;;;;;;15.46;100.00;96704.38;1224661;75;2919612;-65
2023/08/30 02:08:44;;;;;;;0.10;0.10;;;;;;;15.53;100.00;96698.22;1224913;75;2919625;-66
2023/08/30 02:11:22;;;;;;;0.10;0.10;;;;;;;15.46;100.00;96694.09;1225220;75;2921661;-69
2023/08/30 02:14:01;;;;;;;0.55;0.40;;;;;;;15.03;100.00;96700.72;1225378;75;2918119;-66
2023/08/30 02:16:35;;;;;;;0.25;0.25;;;;;;;15.36;100.00;96704.09;1224886;75;2916751;-67
2023/08/30 02:19:09;;;;;;;0.40;0.25;;;;;;;15.09;100.00;96703.34;1225746;75;2920645;-69
2023/08/30 02:21:43;;;;;;;1.55;0.40;;;;;;;15.28;100.00;96700.50;1225187;75;2925568;-67
2023/08/30 02:24:16;;;;;;;0.55;0.40;;;;;;;15.17;100.00;96704.19;1225805;75;2919950;-66
2023/08/30 02:26:48;;;;;;;0.15;0.15;;;;;;;15.41;100.00;96703.22;1225401;75;2921993;-68
2023/08/30 02:29:23;;;;;;;0.40;0.30;;;;;;;15.29;100.00;96693.69;1225406;75;2916855;-66
2023/08/30 02:31:56;;;;;;;0.20;0.15;;;;;;;15.20;100.00;96699.63;1225475;75;2919863;-67
2023/08/30 02:34:29;;;;;;;0.40;0.40;;;;;;;15.21;100.00;96699.09;1224185;75;2921465;-67
2023/08/30 02:37:01;;;;;;;0.20;0.20;;;;;;;15.38;100.00;96703.56;1225663;75;2919188;-66
2023/08/30 02:39:34;;;;;;;0.40;0.40;;;;;;;15.23;100.00;96695.84;1225386;75;2921583;-68
2023/08/30 02:42:07;;;;;;;0.20;0.20;;;;;;;15.30;100.00;96701.44;1225690;75;2920393;-70
2023/08/30 02:44:42;;;;;;;0.50;0.30;;;;;;;15.27;100.00;96702.50;1225377;75;2917388;-66
2023/08/30 02:47:15;;;;;;;1.65;0.30;;;;;;;15.07;100.00;96703.88;1224434;75;2920113;-67
2023/08/30 02:49:47;;;;;;;0.40;0.30;;;;;;;15.18;100.00;96705.69;1225671;75;2923412;-67
2023/08/30 02:52:20;;;;;;;0.85;0.50;;;;;;;15.20;100.00;96699.63;1225563;75;2921894;-67
2023/08/30 02:54:53;;;;;;;0.60;0.30;;;;;;;15.15;100.00;96703.25;1226205;75;2914491;-70
2023/08/30 02:57:26;;;;;;;4.45;0.40;;;;;;;15.22;100.00;96697.81;1225734;75;2921800;-69
2023/08/30 03:00:01;;;;;;;0.45;0.35;;;;;;;15.23;100.00;96698.59;1225381;75;2919681;-66
2023/08/30 03:02:34;;;;;;;0.85;0.30;;;;;;;15.21;100.00;96704.63;1225819;75;2915323;-70
2023/08/30 03:05:08;;;;;;;0.80;0.45;;;;;;;15.00;100.00;96706.53;1226028;75;2918707;-68
2023/08/30 03:07:41;;;;;;;2.65;0.45;;;;;;;15.03;100.00;96719.22;1226099;75;2931312;-68
2023/08/30 03:10:15;;;;;;;0.80;0.50;;;;;;;15.04;100.00;96704.19;1226026;75;2918227;-70
2023/08/30 03:12:47;;;;;;;1.10;0.50;;;;;;;14.86;100.00;96711.28;1226145;75;2921800;-68
2023/08/30 03:15:23;;;;;;;1.20;0.50;;;;;;;15.07;100.00;96709.38;1224194;75;2926744;-67
2023/08/30 03:17:55;;;;;;;0.90;0.50;;;;;;;15.06;100.00;96710.66;1224849;75;2920189;-67
2023/08/30 03:20:28;;;;;;;0.45;0.30;;;;;;;14.80;100.00;96708.63;1224922;83;2919997;-68
2023/08/30 03:22:58;;;;;;;0.75;0.60;;;;;;;14.83;100.00;96715.09;1225211;75;2918712;-70
2023/08/30 03:25:33;;;;;;;1.10;0.30;;;;;;;14.94;100.00;96712.16;1225677;75;2841304;-70
2023/08/30 03:28:06;;;;;;;0.25;0.25;;;;;;;14.86;100.00;96709.28;1224907;75;2917567;-67
2023/08/30 03:30:41;;;;;;;0.40;0.35;;;;;;;14.82;100.00;96697.81;1225230;75;2918620;-67
2023/08/30 03:33:14;;;;;;;0.50;0.50;;;;;;;14.90;100.00;96697.94;1225624;75;2918933;-66
2023/08/30 03:35:46;;;;;;;0.20;0.20;;;;;;;15.13;100.00;96701.75;1225529;75;2912638;-68
2023/08/30 03:38:19;;;;;;;3.55;0.45;;;;;;;14.88;100.00;96698.44;1224795;75;2924726;-68
2023/08/30 03:40:57;;;;;;;0.40;0.30;;;;;;;14.88;100.00;96698.44;1224737;75;2926490;-69
2023/08/30 03:43:29;;;;;;;1.40;0.60;;;;;;;14.82;100.00;96683.31;1225277;75;2923389;-68
2023/08/30 03:46:05;;;;;;;0.50;0.50;;;;;;;14.93;100.00;96687.84;1224784;75;2919006;-70
2023/08/30 03:48:38;;;;;;;0.40;0.30;;;;;;;15.11;100.00;96681.50;1224830;75;2928123;-70
2023/08/30 03:51:10;;;;;;;0.85;0.45;;;;;;;14.88;100.00;96684.66;1224603;75;2926096;-66
2023/08/30 03:53:43;;;;;;;0.50;0.40;;;;;;;14.84;100.00;96689.78;1224461;75;2914592;-68
2023/08/30 03:56:16;;;;;;;1.65;0.30;;;;;;;14.83;100.00;96685.50;1225225;75;2930425;-69
2023/08/30 03:58:49;;;;;;;0.50;0.40;;;;;;;15.01;100.00;96694.97;1224786;75;2920572;-70
2023/08/30 04:01:24;;;;;;;1.55;0.40;;;;;;;15.04;100.00;96695.94;1224512;75;2923563;-70
2023/08/30 04:03:57;;;;;;;0.65;0.35;;;;;;;15.21;100.00;96695.63;1225156;75;2925954;-65
2023/08/30 04:06:29;;;;;;;1.15;0.40;;;;;;;15.07;100.00;96697.63;1223304;75;2921057;-66
2023/08/30 04:09:02;;;;;;;0.40;0.30;;;;;;;15.15;100.00;96687.44;1224591;75;2930055;-67
2023/08/30 04:11:35;;;;;;;0.65;0.50;;;;;;;15.03;100.00;96694.44;1225233;75;2918244;-66
2023/08/30 04:14:07;;;;;;;0.50;0.30;;;;;;;15.24;100.00;96695.28;1225459;75;2938290;-67
2023/08/30 04:16:42;;;;;;;0.20;0.20;;;;;;;15.21;100.00;96688.09;1224419;75;2921079;-66
2023/08/30 04:19:15;;;;;;;0.40;0.30;;;;;;;15.15;100.00;96687.44;1223489;75;2924386;-66
2023/08/30 04:21:47;;;;;;;0.20;0.20;;;;;;;15.09;100.00;96692.31;1223969;75;2924200;-68
2023/08/30 04:24:21;;;;;;;1.55;0.40;;;;;;;14.86;100.00;96689.22;1224670;75;2923800;-67
2023/08/30 04:26:54;;;;;;;4.75;0.75;;;;;;;14.82;100.00;96697.81;1224879;75;2916298;-68
2023/08/30 04:29:26;;;;;;;2.15;0.60;;;;;;;14.85;100.00;96682.25;1224885;75;2919553;-66
2023/08/30 04:32:01;;;;;;;0.50;0.50;;;;;;;14.92;100.00;96684.38;1221768;75;2967119;-68
2023/08/30 04:34:35;;;;;;;0.55;0.40;;;;;;;14.96;100.00;96690.31;1225050;75;2929155;-65
2023/08/30 04:37:08;;;;;;;0.50;0.50;;;;;;;15.03;100.00;96697.94;1225039;75;2918906;-68
2023/08/30 04:39:41;;;;;;;0.50;0.40;;;;;;;15.06;100.00;96694.13;1224496;75;2927896;-68
2023/08/30 04:42:13;;;;;;;0.50;0.40;;;;;;;15.16;100.00;96690.94;1224746;75;2922851;-67
2023/08/30 04:44:46;;;;;;;0.40;0.30;;;;;;;15.29;100.00;96688.19;1224224;75;2928928;-66
2023/08/30 04:47:22;;;;;;;0.60;0.40;;;;;;;15.16;100.00;96683.41;1224720;75;2922245;-66
2023/08/30 04:49:54;;;;;;;0.20;0.20;;;;;;;15.20;100.00;96683.09;1225256;75;2922941;-68
2023/08/30 04:52:27;;;;;;;0.20;0.20;;;;;;;15.17;100.00;96690.41;1225054;75;2921658;-69
2023/08/30 04:55:00;;;;;;;0.50;0.20;;;;;;;15.38;100.00;96681.50;1224396;75;2926978;-68
2023/08/30 04:57:32;;;;;;;0.35;0.35;;;;;;;15.27;100.00;96691.47;1224386;75;2931604;-70
2023/08/30 05:00:06;;;;;;;1.25;0.30;;;;;;;15.21;100.00;96688.09;1225176;75;2920744;-67
2023/08/30 05:02:43;;;;;;;0.30;0.30;;;;;;;15.03;100.00;96692.44;1225233;75;2924261;-68
2023/08/30 05:05:16;;;;;;;1.00;0.40;;;;;;;15.09;100.00;96684.78;1224428;75;2922420;-65
2023/08/30 05:07:48;;;;;;;1.35;0.70;;;;;;;14.96;100.00;96695.81;1224394;75;2919475;-66
2023/08/30 05:10:21;;;;;;;0.95;0.80;;;;;;;14.87;100.00;96694.22;1224258;75;2923273;-66
2023/08/30 05:12:56;;;;;;;0.85;0.50;;;;;;;14.88;100.00;96695.69;1225008;75;2921798;-66
2023/08/30 05:15:28;;;;;;;1.15;0.50;;;;;;;15.05;100.00;96697.41;1224682;75;2925212;-68
2023/08/30 05:18:04;;;;;;;0.70;0.70;;;;;;;15.04;100.00;96710.44;1224296;75;2918818;-65
2023/08/30 05:20:36;;;;;;;1.15;0.65;;;;;;;15.00;100.00;96704.50;1224789;75;2923348;-67
2023/08/30 05:23:09;;;;;;;2.35;0.80;;;;;;;15.08;100.00;96710.13;1224674;75;2923797;-67
2023/08/30 05:25:41;;;;;;;1.85;0.60;;;;;;;15.20;100.00;96707.91;1224740;75;2924021;-69
2023/08/30 05:28:14;;;;;;;0.65;0.40;;;;;;;15.32;100.00;96709.16;1224579;75;2923126;-67
2023/08/30 05:30:47;;;;;;;1.05;0.60;;;;;;;15.15;100.00;96722.53;1225055;75;2919450;-67
2023/08/30 05:33:23;;;;;;;1.10;0.70;;;;;;;15.22;100.00;96719.88;1224356;75;2928650;-67
2023/08/30 05:35:55;;;;;;;1.40;0.50;;;;;;;15.32;100.00;96707.19;1223783;75;2928943;-67
2023/08/30 05:38:28;;;;;;;1.80;0.40;;;;;;;15.28;100.00;96722.56;1223355;75;2928955;-67
2023/08/30 05:41:00;;;;;;;2.45;0.70;;;;;;;15.28;100.00;96722.56;1224528;75;2921812;-66
2023/08/30 05:43:33;;;;;;;0.90;0.50;;;;;;;15.43;100.00;96720.00;1223932;75;2927991;-66
2023/08/30 05:46:08;;;;;;;0.40;0.40;;;;;;;15.32;100.00;96729.22;1225211;75;2918254;-66
2023/08/30 05:48:43;;;;;;;0.40;0.40;;;;;;;15.62;100.00;96730.16;1224690;75;2922855;-66
2023/08/30 05:51:16;;;;;;;0.95;0.40;;;;;;;15.61;100.00;96734.19;1225787;75;2925414;-68
2023/08/30 05:53:48;;;;;;;1.65;0.60;;;;;;;15.50;100.00;96726.88;1224653;75;2917566;-65
2023/08/30 05:56:21;;;;;;;0.50;0.30;;;;;;;15.83;100.00;96728.25;1224450;75;2923102;-65
2023/08/30 05:58:53;;;;;;;0.50;0.40;;;;;;;15.80;100.00;96729.31;1224687;75;2916700;-68
2023/08/30 06:01:26;;;;;;;0.55;0.40;;;;;;;16.03;100.00;96732.34;1225088;75;2920274;-67
2023/08/30 06:04:01;;;;;;;0.75;0.50;;;;;;;15.82;100.00;96735.03;1223576;75;2925377;-67
2023/08/30 06:06:34;;;;;;;1.00;0.60;;;;;;;15.86;100.00;96740.25;1224523;75;2919543;-67
2023/08/30 06:09:07;;;;;;;0.55;0.45;;;;;;;15.89;100.00;96745.41;1224886;75;2920182;-66
2023/08/30 06:11:39;;;;;;;3.80;0.50;;;;;;;16.06;100.00;96753.34;1224491;75;2921464;-66
2023/08/30 06:14:12;;;;;;;0.70;0.45;;;;;;;16.00;100.00;96752.00;1224730;75;2921109;-67
2023/08/30 06:16:45;;;;;;;3.20;0.50;;;;;;;16.01;100.00;96756.97;1224831;75;2916489;-68
2023/08/30 06:19:20;;;;;;;0.90;0.50;;;;;;;16.13;100.00;96758.22;1224641;75;2922710;-67
2023/08/30 06:21:53;;;;;;;0.45;0.40;;;;;;;16.51;100.00;96746.81;1224558;75;2924822;-69
2023/08/30 06:24:26;;;;;;;0.75;0.50;;;;;;;16.25;100.00;96747.66;1225027;75;2924053;-66
2023/08/30 06:26:59;;;;;;;2.30;0.50;;;;;;;16.17;100.00;96755.88;1223557;75;2925860;-65
2023/08/30 06:29:32;;;;;;;1.85;0.65;;;;;;;16.25;100.00;96755.94;1223163;75;2931716;-68
2023/08/30 06:32:09;;;;;;;0.60;0.55;;;;;;;16.54;100.00;96750.53;1224700;75;2928939;-69
2023/08/30 06:34:45;;;;;;;1.00;0.50;;;;;;;16.89;100.00;96768.56;1224565;75;2918468;-67
2023/08/30 06:37:17;;;;;;;3.70;0.80;;;;;;;16.25;100.00;96758.72;1224308;75;2917712;-66
2023/08/30 06:39:53;;;;;;;0.60;0.50;;;;;;;16.55;100.00;96752.75;1224550;75;2921966;-66
2023/08/30 06:42:25;;;;;;;1.00;0.60;;;;;;;16.80;100.00;96758.72;1223286;75;2930923;-64
2023/08/30 06:44:58;;;;;;;0.40;0.30;;;;;;;16.90;100.00;96758.22;1224938;75;2931422;-70
2023/08/30 06:47:31;;;;;;;0.40;0.40;;;;;;;17.17;100.00;96767.09;1224079;75;2922424;-68
2023/08/30 06:50:09;;;;;;;0.30;0.30;;;;;;;17.31;100.00;96776.06;1224524;75;2921683;-66
2023/08/30 06:52:41;;;;;;;0.50;0.30;;;;;;;17.11;100.00;96783.09;1224807;75;2926280;-66
2023/08/30 06:55:14;;;;;;;0.80;0.40;;;;;;;17.13;100.00;96775.00;1224263;75;2921781;-70
2023/08/30 06:57:52;;;;;;;0.65;0.40;;;;;;;16.77;100.00;96779.13;1224150;75;2933930;-66
2023/08/30 07:00:25;;;;;;;1.40;0.60;;;;;;;16.84;100.00;96772.19;1224631;75;2920746;-69
2023/08/30 07:02:58;;;;;;;0.30;0.30;;;;;;;16.99;100.00;96774.34;1224164;75;2934335;-67
2023/08/30 07:05:33;;;;;;;0.55;0.40;;;;;;;16.81;100.00;96782.31;1224247;75;2928697;-67
2023/08/30 07:08:06;;;;;;;1.25;0.70;;;;;;;17.19;100.00;96781.13;1224587;75;2930744;-68
2023/08/30 07:10:39;;;;;;;0.45;0.20;;;;;;;17.61;100.00;96792.84;1224355;75;2920192;-66
2023/08/30 07:13:13;;;;;;;0.50;0.30;;;;;;;17.52;100.00;96792.59;1224192;75;2927248;-67
2023/08/30 07:15:46;;;;;;;0.50;0.35;;;;;;;17.55;100.00;96788.75;1224522;75;2925345;-67
2023/08/30 07:18:19;;;;;;;0.50;0.45;;;;;;;17.25;100.00;96792.81;1224318;75;2928753;-68
2023/08/30 07:20:54;;;;;;;2.40;0.70;;;;;;;16.98;100.00;96792.22;1224544;75;2928546;-68
2023/08/30 07:23:27;;;;;;;0.70;0.40;;;;;;;17.62;100.00;96802.63;1225029;75;2920049;-68
2023/08/30 07:25:59;;;;;;;1.00;0.50;;;;;;;17.29;100.00;96795.94;1224032;75;2921534;-69
2023/08/30 07:28:32;;;;;;;1.05;0.60;;;;;;;17.38;100.00;96801.00;1224613;75;2919166;-69
2023/08/30 07:31:09;;;;;;;2.15;0.90;;;;;;;17.23;100.00;96806.44;1224873;75;2922144;-66
2023/08/30 07:33:41;;;;;;;2.30;0.50;;;;;;;16.94;100.00;96809.16;1224883;75;2919591;-65
2023/08/30 07:36:17;;;;;;;1.00;0.55;;;;;;;16.75;100.00;96812.06;1224347;75;2924867;-69
2023/08/30 07:38:49;;;;;;;1.55;0.70;;;;;;;17.06;100.00;96808.88;1223652;75;2927060;-67
2023/08/30 07:41:22;;;;;;;0.70;0.70;;;;;;;16.96;100.00;96814.88;1224316;75;2933132;-67
2023/08/30 07:43:54;;;;;;;2.45;0.90;;;;;;;16.67;100.00;96822.31;1224819;75;2922499;-65
2023/08/30 07:46:28;;;;;;;1.15;0.70;;;;;;;16.99;100.00;96824.13;1224953;75;2918302;-67
2023/08/30 07:49:00;;;;;;;1.40;0.70;;;;;;;16.86;100.00;96819.41;1223224;75;2922221;-67
2023/08/30 07:51:35;;;;;;;1.60;0.60;;;;;;;16.96;100.00;96833.50;1224749;75;2923339;-64
2023/08/30 07:54:09;;;;;;;0.85;0.75;;;;;;;16.83;100.00;96834.28;1224880;75;2919169;-68
2023/08/30 07:56:42;;;;;;;0.80;0.50;;;;;;;16.88;100.00;96832.66;1223668;75;2923171;-65
2023/08/30 07:59:14;;;;;;;0.70;0.50;;;;;;;17.08;100.00;96831.94;1223903;75;2919682;-65
2023/08/30 08:01:47;;;;;;;0.85;0.65;;;;;;;16.65;100.00;96843.50;1224385;75;2924026;-65
2023/08/30 08:04:19;;;;;;;0.50;0.50;;;;;;;16.94;100.00;96842.31;1224378;75;2932097;-67
2023/08/30 08:06:55;;;;;;;0.85;0.50;;;;;;;17.07;100.00;96841.50;1224296;75;2923684;-64
2023/08/30 08:09:28;;;;;;;0.50;0.45;;;;;;;16.98;100.00;96845.50;1224510;75;2929270;-68
2023/08/30 08:12:00;;;;;;;1.35;0.50;;;;;;;17.15;100.00;96841.56;1224009;75;2930596;-66
2023/08/30 08:14:33;;;;;;;1.20;0.60;;;;;;;17.17;100.00;96844.53;1224665;75;2928400;-66
2023/08/30 08:17:07;;;;;;;3.75;0.65;;;;;;;17.00;100.00;96848.47;1224774;75;2925826;-66
2023/08/30 08:19:40;;;;;;;1.95;0.50;;;;;;;17.17;100.00;96850.84;1224854;75;2921855;-67
2023/08/30 08:22:15;;;;;;;0.60;0.40;;;;;;;17.15;100.00;96856.16;1224594;75;2928179;-67
2023/08/30 08:24:48;;;;;;;1.35;0.60;;;;;;;17.02;100.00;96862.47;1224798;75;2923227;-68
2023/08/30 08:27:20;;;;;;;0.95;0.50;;;;;;;17.15;100.00;96858.16;1225033;75;2920052;-65
2023/08/30 08:29:53;;;;;;;0.90;0.60;;;;;;;17.24;100.00;96852.91;1224083;75;2918451;-66
2023/08/30 08:32:26;;;;;;;2.20;0.75;;;;;;;17.05;100.00;96857.88;1225363;75;2917289;-66
2023/08/30 08:34:58;;;;;;;1.35;0.70;;;;;;;17.13;100.00;96864.25;1223430;75;2920714;-69
2023/08/30 08:37:34;;;;;;;0.50;0.40;;;;;;;17.24;100.00;96852.16;1224894;75;2925651;-71
2023/08/30 08:40:10;;;;;;;2.50;0.50;;;;;;;17.11;100.00;96860.53;1223957;75;2929599;-70
2023/08/30 08:42:45;;;;;;;1.95;0.90;;;;;;;16.99;100.00;96855.28;1224454;75;2917694;-68
2023/08/30 08:45:19;;;;;;;1.75;0.70;;;;;;;16.80;100.00;96860.25;1224862;75;2927596;-66
2023/08/30 08:47:52;;;;;;;0.90;0.60;;;;;;;17.10;100.00;96847.97;1224272;75;2927683;-65
2023/08/30 08:50:25;;;;;;;0.90;0.80;;;;;;;17.14;100.00;96843.59;1224800;75;2927465;-66
2023/08/30 08:53:00;;;;;;;0.55;0.50;;;;;;;17.48;100.00;96858.63;1225323;75;2920857;-67
2023/08/30 08:55:35;;;;;;;1.75;0.65;;;;;;;17.44;100.00;96850.66;1224520;75;2917012;-68
2023/08/30 08:58:08;;;;;;;2.15;0.60;;;;;;;17.53;100.00;96860.50;1225729;75;2924111;-68
2023/08/30 09:00:42;;;;;;;1.75;0.50;;;;;;;17.70;100.00;96851.75;1224597;75;2920148;-69
2023/08/30 09:03:15;;;;;;;1.00;0.45;;;;;;;17.77;100.00;96846.25;1224757;75;2917012;-64
2023/08/30 09:05:49;;;;;;;1.15;0.70;;;;;;;17.63;100.00;96845.63;1224446;75;2928562;-66
2023/08/30 09:08:25;;;;;;;2.95;0.60;;;;;;;17.94;100.00;96845.81;1224347;75;2921256;-68
2023/08/30 09:10:58;;;;;;;2.70;0.85;;;;;;;17.56;100.00;96854.63;1224474;75;2920621;-67
2023/08/30 09:13:30;;;;;;;0.75;0.60;;;;;;;17.96;100.00;96853.59;1224347;75;2930064;-67
2023/08/30 09:16:04;;;;;;;1.40;0.60;;;;;;;18.06;100.00;96849.78;1223785;75;2920439;-68
2023/08/30 09:18:36;;;;;;;0.95;0.60;;;;;;;18.18;100.00;96855.00;1225043;75;2923174;-66
2023/08/30 09:21:10;;;;;;;0.95;0.40;;;;;;;18.84;100.00;96848.03;1224313;75;2927707;-66
2023/08/30 09:23:45;;;;;;;0.75;0.30;;;;;;;18.29;100.00;96858.19;1224606;75;2928767;-66
2023/08/30 09:26:18;;;;;;;0.90;0.40;;;;;;;18.29;100.00;96851.91;1224705;75;2923360;-70
2023/08/30 09:28:50;;;;;;;0.60;0.40;;;;;;;18.15;100.00;96851.28;1222634;75;2926340;-67
2023/08/30 09:31:23;;;;;;;2.10;0.40;;;;;;;18.59;100.00;96851.28;1224159;75;2927365;-67
2023/08/30 09:34:01;;;;;;;1.25;0.45;;;;;;;18.45;100.00;96852.72;1224453;75;2928250;-66
2023/08/30 09:36:42;;;;;;;1.35;0.40;;;;;;;18.56;100.00;96851.63;1224753;75;2925425;-69
2023/08/30 09:39:18;;;;;;;1.00;0.30;;;;;;;19.28;100.00;96850.66;1225216;75;2923955;-66
2023/08/30 09:41:52;;;;;;;0.55;0.40;;;;;;;18.78;100.00;96853.00;1224458;75;2928012;-68
2023/08/30 09:44:26;;;;;;;4.50;0.45;;;;;;;18.96;99.42;96843.63;1224415;75;2920115;-68
2023/08/30 09:46:59;;;;;;;3.25;0.70;;;;;;;19.11;95.20;96842.91;1224459;75;2924468;-66
2023/08/30 09:49:33;;;;;;;0.95;0.50;;;;;;;19.02;93.22;96851.75;1224440;75;2927691;-67
2023/08/30 09:52:08;;;;;;;0.40;0.30;;;;;;;19.19;93.12;96832.53;1224849;75;2919194;-67
2023/08/30 09:54:44;;;;;;;3.95;0.60;;;;;;;19.08;92.84;96841.22;1224443;75;2920702;-67
2023/08/30 09:57:19;;;;;;;0.40;0.40;;;;;;;18.94;91.13;96840.66;1225147;75;2923201;-68
2023/08/30 09:59:53;;;;;;;0.85;0.40;;;;;;;19.07;89.72;96834.94;1224671;75;2927678;-66
2023/08/30 10:02:27;;;;;;;1.35;0.50;;;;;;;19.07;95.91;96839.75;1224472;75;2920476;-69
2023/08/30 10:05:00;;;;;;;0.80;0.30;;;;;;;19.90;94.17;96831.94;1224504;75;2927152;-66
2023/08/30 10:07:32;;;;;;;0.30;0.30;;;;;;;20.34;100.00;96835.09;1223581;75;2919551;-69
2023/08/30 10:10:09;;;;;;;2.10;0.40;;;;;;;19.90;86.52;96826.38;1220115;75;3170503;-68
2023/08/30 10:12:44;;;;;;;1.70;0.40;;;;;;;19.95;92.01;96831.00;1224333;75;2931169;-67
2023/08/30 10:15:16;;;;;;;0.60;0.30;;;;;;;19.82;98.62;96828.41;1224498;75;2927335;-65
2023/08/30 10:17:51;;;;;;;0.60;0.40;;;;;;;19.25;100.00;96824.03;1223967;75;2925813;-66
2023/08/30 10:20:24;;;;;;;0.30;0.30;;;;;;;19.63;91.39;96826.03;1225255;75;2927603;-66
2023/08/30 10:22:58;;;;;;;2.25;0.30;;;;;;;19.65;92.34;96821.41;1224987;75;2922483;-68
2023/08/30 10:25:37;;;;;;;2.20;0.40;;;;;;;19.67;94.29;96826.38;1224563;75;2920745;-67
2023/08/30 10:28:12;;;;;;;0.50;0.30;;;;;;;19.45;92.68;96817.53;1224878;75;2932759;-68
2023/08/30 10:30:45;;;;;;;0.25;0.20;;;;;;;19.66;93.61;96813.81;1224601;75;2924262;-67
2023/08/30 10:33:20;;;;;;;0.90;0.20;;;;;;;19.57;93.13;96804.75;1223977;75;2920312;-65
2023/08/30 10:35:55;;;;;;;0.70;0.40;;;;;;;19.54;93.57;96819.75;1225485;75;2918434;-67
2023/08/30 10:38:31;;;;;;;0.55;0.30;;;;;;;19.89;93.64;96822.09;1224595;75;2929640;-68
2023/08/30 10:41:13;;;;;;;0.80;0.50;;;;;;;;;;1223768;75;2919720;-70
2023/08/30 10:43:52;;;;;;;0.45;0.30;;;;;;;19.91;92.67;96813.97;1224410;75;2921237;-65
2023/08/30 10:46:36;;;;;;;0.20;0.20;;;;;;;20.10;88.67;96811.47;1222829;75;2949107;-68
2023/08/30 10:49:17;;;;;;;0.85;0.35;;;;;;;20.23;88.26;96816.09;1224250;75;2934977;-69
2023/08/30 10:52:00;;;;;;;0.75;0.20;;;;;;;20.48;88.06;96815.41;1224103;75;2929931;-66
2023/08/30 10:54:42;;;;;;;0.40;0.30;;;;;;;20.70;81.83;96824.94;1223836;75;2924951;-69
2023/08/30 10:57:24;;;;;;;0.75;0.30;;;;;;;20.69;78.02;96815.13;1224571;75;2930198;-67
2023/08/30 11:00:13;;;;;;;0.50;0.20;;;;;;;21.06;84.02;96816.91;1224247;75;2922833;-65
2023/08/30 11:02:49;;;;;;;2.70;0.30;;;;;;;21.00;77.78;96824.03;1224320;75;2928423;-68
2023/08/30 11:05:25;;;;;;;0.55;0.30;;;;;;;20.64;77.67;96822.41;1223796;75;2936988;-66
2023/08/30 11:07:58;;;;;;;1.15;0.40;;;;;;;20.86;77.87;96831.91;1224729;75;2926530;-66
2023/08/30 11:10:31;;;;;;;0.15;0.15;;;;;;;21.29;78.24;96827.13;1223761;75;2926612;-67
2023/08/30 11:13:06;;;;;;;0.95;0.30;;;;;;;21.45;75.41;96813.84;1222584;75;2920333;-69
2023/08/30 11:15:39;;;;;;;0.55;0.30;;;;;;;20.85;77.77;96820.03;1222534;75;2927759;-65
2023/08/30 11:18:12;;;;;;;0.95;0.30;;;;;;;21.16;77.76;96813.50;1223996;75;2920878;-69
2023/08/30 11:20:45;;;;;;;0.30;0.30;;;;;;;21.26;75.40;96814.34;1224142;75;2926768;-68
2023/08/30 11:23:18;;;;;;;0.45;0.20;;;;;;;22.27;74.10;96814.84;1223086;75;2952576;-68
2023/08/30 11:25:54;;;;;;;0.60;0.20;;;;;;;22.94;70.42;96808.16;1224153;75;2925688;-69
2023/08/30 11:28:29;;;;;;;0.65;0.20;;;;;;;21.78;70.98;96808.13;1224868;75;2926537;-68
2023/08/30 11:31:02;;;;;;;0.20;0.20;;;;;;;22.77;68.30;96806.19;1224750;75;2924300;-65
2023/08/30 11:33:34;;;;;;;0.30;0.20;;;;;;;21.98;70.34;96809.75;1224322;75;2918087;-69
2023/08/30 11:36:07;;;;;;;0.65;0.30;;;;;;;21.92;69.77;96809.28;1225091;75;2921884;-68
2023/08/30 11:38:42;;;;;;;0.40;0.35;;;;;;;22.11;70.52;96806.66;1225222;75;2918096;-66
2023/08/30 11:41:15;;;;;;;0.50;0.30;;;;;;;22.00;71.62;96806.41;1225129;75;2912309;-66
2023/08/30 11:43:51;;;;;;;0.95;0.20;;;;;;;21.98;72.22;96803.44;1225356;75;2918324;-67